AHO weather

El Ahijadero Airport
Tlalixcoyan, Veracruz, Mexico

Public forecast

Using degrees Celsius for public forecast. Weather courtesy of forecast.io.

Closest aviation weather report (METAR) to El Ahijadero Airport

Closest report is General Heriberto Jara International Airport, 23.6 nm (43.8 km) N. Retrieved 2020/02/17 00:41 UTC (0 seconds ago):

MMVR 170041Z 07002KT 6SM BKN010 24/22 A2992 RMK 8/500 HZY LWR SC

Closest aviation forecast (TAF) to El Ahijadero Airport

Closest forecast is General Heriberto Jara International Airport, 23.6 nm (43.8 km) N. Retrieved 2020/02/16 18:33 UTC (6 hours ago):

TAF MMVR 161626Z 1618/1718 06010KT P6SM SCT020 SCT080 TX29/1621Z TN16/1712Z BECMG 1702/1703 00000KT FM170900 00000KT 3SM BR BKN010 TEMPO 1712/1715 1SM BR